Time;durP1;ratioP1;P1;durP2;ratioP2;P2;SDS_P1;SDS_P2;PMS_P1;PMS_P2;Temp;Humidity;BMP_temperature;BMP_pressure;BME280_temperature;BME280_humidity;BME280_pressure;Samples;Min_cycle;Max_cycle;Signal;HPM_P1;HPM_P2
2022/06/19 00:00:55;;;;;;;;;;;18.40;99.90;;;;;;5124281;27;19919;-53
2022/06/19 00:03:36;;;;;;;;;;;18.40;99.90;;;;;;5124489;27;19912;-53
2022/06/19 00:06:17;;;;;;;;;;;18.40;99.90;;;;;;5123739;27;19945;-53
2022/06/19 00:08:59;;;;;;;;;;;18.40;99.90;;;;;;5122403;27;19926;-53
2022/06/19 00:11:39;;;;;;;;;;;18.40;99.90;;;;;;5124120;27;19916;-53
2022/06/19 00:14:22;;;;;;;;;;;18.50;99.90;;;;;;5124642;27;20407;-53
2022/06/19 00:17:07;;;;;;;;;;;18.40;99.90;;;;;;5103263;27;19926;-53
2022/06/19 00:19:49;;;;;;;;;;;18.40;99.90;;;;;;5083685;27;19924;-53
2022/06/19 00:22:30;;;;;;;;;;;18.30;99.90;;;;;;5124293;27;20529;-53
2022/06/19 00:25:10;;;;;;;;;;;18.10;99.90;;;;;;5122224;27;19916;-53
2022/06/19 00:27:51;;;;;;;;;;;18.10;99.90;;;;;;5116514;27;19916;-53
2022/06/19 00:30:31;;;;;;;;;;;18.00;99.90;;;;;;5068819;27;19931;-53
2022/06/19 00:33:10;;;;;;;;;;;17.90;99.90;;;;;;5122536;27;20284;-53
2022/06/19 00:35:56;;;;;;;;;;;17.90;99.90;;;;;;5124173;27;19912;-53
2022/06/19 00:38:48;;;;;;;;;;;17.80;99.90;;;;;;5122566;27;19918;-54
2022/06/19 00:41:32;;;;;;;;;;;17.70;99.90;;;;;;5104445;27;19926;-53
2022/06/19 00:44:14;;;;;;;;;;;17.60;99.90;;;;;;5125318;27;19912;-53
2022/06/19 00:46:56;;;;;;;;;;;17.50;99.90;;;;;;5124119;27;19916;-53
2022/06/19 00:49:39;;;;;;;;;;;17.40;99.90;;;;;;5106810;27;19912;-55
2022/06/19 00:52:20;;;;;;;;;;;17.40;99.90;;;;;;5103460;27;20270;-53
2022/06/19 00:55:02;;;;;;;;;;;17.30;99.90;;;;;;5123934;27;20262;-55
2022/06/19 00:57:43;;;;;;;;;;;17.20;99.90;;;;;;5144408;27;19911;-55
2022/06/19 01:00:26;;;;;;;;;;;17.20;99.90;;;;;;5110961;27;20391;-54
2022/06/19 01:03:07;;;;;;;;;;;17.10;99.90;;;;;;5118382;27;20281;-54
2022/06/19 01:05:48;;;;;;;;;;;17.10;99.90;;;;;;5162633;27;19919;-56
2022/06/19 01:08:28;;;;;;;;;;;17.10;99.90;;;;;;5116155;27;20262;-53
2022/06/19 01:11:09;;;;;;;;;;;17.10;99.90;;;;;;5143440;27;19922;-55
2022/06/19 01:13:51;;;;;;;;;;;17.10;99.90;;;;;;5101980;27;19912;-54
2022/06/19 01:16:33;;;;;;;;;;;17.10;99.90;;;;;;5094465;27;19912;-54
2022/06/19 01:19:20;;;;;;;;;;;17.10;99.90;;;;;;5098931;27;19946;-54
2022/06/19 01:22:06;;;;;;;;;;;17.00;99.90;;;;;;5123277;27;20351;-53
2022/06/19 01:25:05;;;;;;;;;;;16.90;99.90;;;;;;5123873;27;19926;-57
2022/06/19 01:30:49;;;;;;;;;;;16.90;99.90;;;;;;5120658;27;19919;-55
2022/06/19 01:33:35;;;;;;;;;;;16.80;99.90;;;;;;5131541;27;19917;-54
2022/06/19 01:36:18;;;;;;;;;;;16.70;99.90;;;;;;5164476;27;20184;-56
2022/06/19 01:39:00;;;;;;;;;;;16.70;99.90;;;;;;5103129;27;19918;-53
2022/06/19 01:41:40;;;;;;;;;;;16.60;99.90;;;;;;5103668;27;19957;-56
2022/06/19 01:44:21;;;;;;;;;;;16.60;99.90;;;;;;5102753;27;20265;-53
2022/06/19 01:47:02;;;;;;;;;;;16.60;99.90;;;;;;5120980;27;19911;-56
2022/06/19 01:49:47;;;;;;;;;;;16.60;99.90;;;;;;5111094;27;19923;-57
2022/06/19 01:52:32;;;;;;;;;;;16.50;99.90;;;;;;5119266;27;20410;-56
2022/06/19 01:55:14;;;;;;;;;;;16.50;99.90;;;;;;5139658;27;19918;-55
2022/06/19 01:57:58;;;;;;;;;;;16.50;99.90;;;;;;5118017;27;19965;-53
2022/06/19 02:00:39;;;;;;;;;;;16.40;99.90;;;;;;5118127;27;19920;-54
2022/06/19 02:03:24;;;;;;;;;;;16.40;99.90;;;;;;5117073;27;19912;-55
2022/06/19 02:06:05;;;;;;;;;;;16.40;99.90;;;;;;5149138;27;19919;-54
2022/06/19 02:08:49;;;;;;;;;;;16.40;99.90;;;;;;5101561;27;20386;-54
2022/06/19 02:11:30;;;;;;;;;;;16.30;99.90;;;;;;5138910;27;19945;-53
2022/06/19 02:14:12;;;;;;;;;;;16.20;99.90;;;;;;5123140;27;20304;-55
2022/06/19 02:16:52;;;;;;;;;;;16.20;99.90;;;;;;5123387;27;19915;-55
2022/06/19 02:19:33;;;;;;;;;;;16.10;99.90;;;;;;5103465;27;20411;-56
2022/06/19 02:22:14;;;;;;;;;;;16.00;99.90;;;;;;5124694;27;19912;-55
2022/06/19 02:24:54;;;;;;;;;;;15.90;99.90;;;;;;5123105;27;20369;-54
2022/06/19 02:27:35;;;;;;;;;;;15.90;99.90;;;;;;5081293;28;20369;-55
2022/06/19 02:30:16;;;;;;;;;;;15.80;99.90;;;;;;5111069;27;20105;-53
2022/06/19 02:32:56;;;;;;;;;;;15.80;99.90;;;;;;5118511;27;19937;-56
2022/06/19 02:35:35;;;;;;;;;;;15.70;99.90;;;;;;5122951;27;20214;-53
2022/06/19 02:38:20;;;;;;;;;;;15.70;99.90;;;;;;5123621;27;19918;-54
2022/06/19 02:41:06;;;;;;;;;;;15.60;99.90;;;;;;5084470;27;20474;-53
2022/06/19 02:43:46;;;;;;;;;;;15.50;99.90;;;;;;5103511;27;19920;-53
2022/06/19 02:46:26;;;;;;;;;;;15.50;99.90;;;;;;5116821;27;19918;-56
2022/06/19 02:49:06;;;;;;;;;;;15.40;99.90;;;;;;5116313;27;19916;-54
2022/06/19 02:51:47;;;;;;;;;;;15.40;99.90;;;;;;5158431;27;19918;-54
2022/06/19 02:54:27;;;;;;;;;;;15.40;99.90;;;;;;5100915;27;19912;-57
2022/06/19 02:57:10;;;;;;;;;;;15.30;99.90;;;;;;5101724;27;20278;-53
2022/06/19 02:59:51;;;;;;;;;;;15.30;99.90;;;;;;5090424;27;20431;-54
2022/06/19 03:02:33;;;;;;;;;;;15.20;99.90;;;;;;5109540;27;19919;-55
2022/06/19 03:05:16;;;;;;;;;;;15.20;99.90;;;;;;5120374;27;19929;-55
2022/06/19 03:07:56;;;;;;;;;;;15.10;99.90;;;;;;5117713;27;19912;-57
2022/06/19 03:10:36;;;;;;;;;;;15.20;99.90;;;;;;5112415;27;19913;-56
2022/06/19 03:13:17;;;;;;;;;;;15.20;99.90;;;;;;5098222;27;20567;-54
2022/06/19 03:16:02;;;;;;;;;;;15.30;99.90;;;;;;5121730;27;19922;-54
2022/06/19 03:18:43;;;;;;;;;;;15.40;99.90;;;;;;5080762;28;19912;-55
2022/06/19 03:21:23;;;;;;;;;;;15.40;99.90;;;;;;5122661;27;19912;-55
2022/06/19 03:24:03;;;;;;;;;;;15.40;99.90;;;;;;5103803;27;19953;-55
2022/06/19 03:26:42;;;;;;;;;;;15.40;99.90;;;;;;5121089;27;19957;-54
2022/06/19 03:29:22;;;;;;;;;;;15.50;99.90;;;;;;5117679;27;19919;-55
2022/06/19 03:32:03;;;;;;;;;;;15.50;99.90;;;;;;5082297;28;19919;-54
2022/06/19 03:34:44;;;;;;;;;;;15.60;99.90;;;;;;5123622;27;20385;-56
2022/06/19 03:37:23;;;;;;;;;;;15.70;99.90;;;;;;5119471;27;19924;-55
2022/06/19 03:40:04;;;;;;;;;;;15.80;99.90;;;;;;5111754;27;19912;-55
2022/06/19 03:42:45;;;;;;;;;;;15.90;99.90;;;;;;5123514;27;19934;-57
2022/06/19 03:45:25;;;;;;;;;;;16.00;99.90;;;;;;5123025;27;19911;-56
2022/06/19 03:48:05;;;;;;;;;;;16.10;99.90;;;;;;5122992;27;20111;-55
2022/06/19 03:50:48;;;;;;;;;;;16.10;99.90;;;;;;5106953;27;19912;-54
2022/06/19 03:53:29;;;;;;;;;;;16.20;99.90;;;;;;5124465;27;19929;-55
2022/06/19 03:56:10;;;;;;;;;;;16.40;99.90;;;;;;5103916;27;20168;-56
2022/06/19 03:58:51;;;;;;;;;;;16.50;99.90;;;;;;5123560;27;19934;-55
2022/06/19 04:01:33;;;;;;;;;;;16.70;99.90;;;;;;5124261;27;19912;-55
2022/06/19 04:04:13;;;;;;;;;;;16.90;99.90;;;;;;5099815;27;19974;-56
2022/06/19 04:06:53;;;;;;;;;;;17.10;99.90;;;;;;5122511;27;20403;-55
2022/06/19 04:09:33;;;;;;;;;;;17.40;99.90;;;;;;5095639;27;19946;-54
2022/06/19 04:12:15;;;;;;;;;;;17.60;99.90;;;;;;5123983;27;19916;-54
2022/06/19 04:15:02;;;;;;;;;;;18.00;99.90;;;;;;5123567;27;19927;-56
2022/06/19 04:17:42;;;;;;;;;;;18.60;99.90;;;;;;5105048;27;19918;-54
2022/06/19 04:20:21;;;;;;;;;;;19.20;99.90;;;;;;5110833;27;19913;-54
2022/06/19 04:23:16;;;;;;;;;;;19.70;99.90;;;;;;5124564;27;19912;-56
2022/06/19 04:25:56;;;;;;;;;;;20.30;99.90;;;;;;5100974;27;19930;-55
2022/06/19 04:28:36;;;;;;;;;;;20.90;99.90;;;;;;5122800;27;19920;-54
2022/06/19 04:31:16;;;;;;;;;;;21.40;99.90;;;;;;5123077;27;19912;-56
2022/06/19 04:33:57;;;;;;;;;;;21.90;99.90;;;;;;5124243;27;20291;-54
2022/06/19 04:36:37;;;;;;;;;;;22.50;99.90;;;;;;5124064;27;19912;-55
2022/06/19 04:39:18;;;;;;;;;;;23.00;99.90;;;;;;5123742;27;20384;-53
2022/06/19 04:41:58;;;;;;;;;;;23.50;99.90;;;;;;5124160;27;19912;-54
2022/06/19 04:44:38;;;;;;;;;;;24.00;99.90;;;;;;5124170;27;19922;-53
2022/06/19 04:47:18;;;;;;;;;;;24.40;99.90;;;;;;5123427;27;19912;-55
2022/06/19 04:49:58;;;;;;;;;;;24.80;99.90;;;;;;5114427;27;19912;-55
2022/06/19 04:52:38;;;;;;;;;;;25.00;99.90;;;;;;5122595;27;19916;-55
2022/06/19 04:55:18;;;;;;;;;;;25.40;99.90;;;;;;5102332;27;19930;-53
2022/06/19 04:58:02;;;;;;;;;;;25.70;99.90;;;;;;5122125;27;19911;-54
2022/06/19 05:00:42;;;;;;;;;;;26.10;99.90;;;;;;5112397;27;20231;-54
2022/06/19 05:03:23;;;;;;;;;;;26.30;99.90;;;;;;5123506;27;20218;-53
2022/06/19 05:06:03;;;;;;;;;;;26.50;99.90;;;;;;5123206;27;19926;-54
2022/06/19 05:08:43;;;;;;;;;;;26.50;99.90;;;;;;5124156;27;19922;-55
2022/06/19 05:11:23;;;;;;;;;;;26.70;99.90;;;;;;5118043;27;19924;-54
2022/06/19 05:14:07;;;;;;;;;;;27.00;99.90;;;;;;5123333;27;20438;-53
2022/06/19 05:16:47;;;;;;;;;;;27.20;94.70;;;;;;5144068;27;19926;-54
2022/06/19 05:19:27;;;;;;;;;;;27.30;85.50;;;;;;5123711;27;19922;-55
2022/06/19 05:22:07;;;;;;;;;;;27.50;79.50;;;;;;5124447;27;19912;-55
2022/06/19 05:24:47;;;;;;;;;;;27.80;71.80;;;;;;5122268;27;19933;-54
2022/06/19 05:27:27;;;;;;;;;;;27.80;62.70;;;;;;5103789;27;19916;-53
2022/06/19 05:30:08;;;;;;;;;;;27.90;61.00;;;;;;5091293;27;20427;-54
2022/06/19 05:32:48;;;;;;;;;;;28.00;58.00;;;;;;5132209;27;19929;-54
2022/06/19 05:35:28;;;;;;;;;;;28.10;56.90;;;;;;5123729;27;19912;-53
2022/06/19 05:38:11;;;;;;;;;;;28.20;55.00;;;;;;5103130;27;20328;-56
2022/06/19 05:40:53;;;;;;;;;;;28.00;55.70;;;;;;5104627;27;20416;-54
2022/06/19 05:43:34;;;;;;;;;;;27.20;56.90;;;;;;5124912;27;19912;-55
2022/06/19 05:46:16;;;;;;;;;;;26.50;59.40;;;;;;5123868;27;19918;-53
2022/06/19 05:48:56;;;;;;;;;;;26.10;62.00;;;;;;5122017;27;19919;-54
2022/06/19 05:51:36;;;;;;;;;;;25.90;70.70;;;;;;5124158;27;20184;-54
2022/06/19 05:54:16;;;;;;;;;;;25.80;67.80;;;;;;5100966;27;19912;-55
2022/06/19 05:56:56;;;;;;;;;;;25.70;68.00;;;;;;5122798;27;19916;-54
2022/06/19 05:59:36;;;;;;;;;;;25.80;67.40;;;;;;5098922;27;19931;-53
2022/06/19 06:02:16;;;;;;;;;;;25.90;67.70;;;;;;5124378;27;19918;-53
2022/06/19 06:04:57;;;;;;;;;;;26.00;67.80;;;;;;5120392;27;19916;-54
2022/06/19 06:07:37;;;;;;;;;;;26.00;67.90;;;;;;5117842;27;19919;-53
2022/06/19 06:10:17;;;;;;;;;;;26.00;67.80;;;;;;5087035;27;19917;-55
2022/06/19 06:12:56;;;;;;;;;;;26.20;67.80;;;;;;5128054;27;19922;-55
2022/06/19 06:15:36;;;;;;;;;;;26.20;68.90;;;;;;5121433;27;19926;-53
2022/06/19 06:18:16;;;;;;;;;;;26.20;66.60;;;;;;5122660;27;19915;-56
2022/06/19 06:20:57;;;;;;;;;;;26.30;64.90;;;;;;5102474;27;19916;-53
2022/06/19 06:23:37;;;;;;;;;;;26.40;61.70;;;;;;5123731;27;20207;-55
2022/06/19 06:26:18;;;;;;;;;;;26.50;63.00;;;;;;5122716;27;19942;-55
2022/06/19 06:28:59;;;;;;;;;;;26.60;60.20;;;;;;5101010;27;19912;-53
2022/06/19 06:31:40;;;;;;;;;;;26.70;59.60;;;;;;5122724;27;20323;-55
2022/06/19 06:34:20;;;;;;;;;;;26.80;58.50;;;;;;5104123;27;20396;-54
2022/06/19 06:37:00;;;;;;;;;;;26.90;59.10;;;;;;5082594;28;19917;-54
2022/06/19 06:39:40;;;;;;;;;;;27.00;58.40;;;;;;5075662;27;19921;-53
2022/06/19 06:42:19;;;;;;;;;;;27.00;56.80;;;;;;5124838;27;19919;-53
2022/06/19 06:45:01;;;;;;;;;;;27.10;57.70;;;;;;5124675;27;19911;-53
2022/06/19 06:47:41;;;;;;;;;;;27.10;57.50;;;;;;5103700;27;19938;-53
2022/06/19 06:50:20;;;;;;;;;;;27.10;57.30;;;;;;5111651;27;19912;-55
2022/06/19 06:53:00;;;;;;;;;;;27.10;54.30;;;;;;5103321;27;20571;-55
2022/06/19 06:55:41;;;;;;;;;;;27.10;57.50;;;;;;5100572;27;20479;-53
2022/06/19 06:58:21;;;;;;;;;;;27.10;54.30;;;;;;5123851;27;19916;-53
2022/06/19 07:01:07;;;;;;;;;;;27.10;54.90;;;;;;5130528;27;19946;-56
2022/06/19 07:03:52;;;;;;;;;;;27.10;55.10;;;;;;5102882;27;19938;-54
2022/06/19 07:06:33;;;;;;;;;;;27.20;53.90;;;;;;5119727;27;20296;-54
2022/06/19 07:09:14;;;;;;;;;;;27.20;53.30;;;;;;5102233;27;19917;-55
2022/06/19 07:11:54;;;;;;;;;;;27.30;52.70;;;;;;5101231;27;19924;-52
2022/06/19 07:14:33;;;;;;;;;;;27.40;51.90;;;;;;5102906;27;19916;-54
2022/06/19 07:17:13;;;;;;;;;;;27.50;52.60;;;;;;5102336;27;19969;-55
2022/06/19 07:19:53;;;;;;;;;;;27.70;52.60;;;;;;5101231;27;20317;-53
2022/06/19 07:22:33;;;;;;;;;;;27.80;51.40;;;;;;5099875;27;19912;-52
2022/06/19 07:25:15;;;;;;;;;;;27.90;52.00;;;;;;5098206;27;19923;-53
2022/06/19 07:27:56;;;;;;;;;;;28.00;51.00;;;;;;5120288;27;19916;-54
2022/06/19 07:30:35;;;;;;;;;;;28.00;51.00;;;;;;5081729;27;20238;-53
2022/06/19 07:33:15;;;;;;;;;;;28.10;51.80;;;;;;5100296;27;19920;-54
2022/06/19 07:35:57;;;;;;;;;;;28.20;50.50;;;;;;5112123;27;19928;-55
2022/06/19 07:38:39;;;;;;;;;;;28.30;49.50;;;;;;5108638;27;19913;-55
2022/06/19 07:41:20;;;;;;;;;;;28.40;48.00;;;;;;5095577;27;19926;-54
2022/06/19 07:43:59;;;;;;;;;;;28.40;48.90;;;;;;5107106;27;19920;-53
2022/06/19 07:50:09;;;;;;;;;;;28.40;49.10;;;;;;5108317;27;20302;-54
2022/06/19 07:52:37;;;;;;;;;;;28.60;48.60;;;;;;5121416;27;20358;-53
2022/06/19 07:55:18;;;;;;;;;;;28.70;48.70;;;;;;5093456;27;19920;-53
2022/06/19 07:58:01;;;;;;;;;;;28.80;48.40;;;;;;5099781;27;19916;-54
2022/06/19 08:00:45;;;;;;;;;;;28.80;47.90;;;;;;5105431;27;19912;-53
2022/06/19 08:03:25;;;;;;;;;;;28.70;47.20;;;;;;5122583;27;19912;-53
2022/06/19 08:06:04;;;;;;;;;;;28.60;47.80;;;;;;5102147;27;20609;-53
2022/06/19 08:08:44;;;;;;;;;;;28.70;47.00;;;;;;5103135;27;19923;-53
2022/06/19 08:11:27;;;;;;;;;;;28.70;46.20;;;;;;5103285;27;20157;-53
2022/06/19 08:14:07;;;;;;;;;;;28.70;46.60;;;;;;5103522;27;19926;-53
2022/06/19 08:16:47;;;;;;;;;;;28.80;45.70;;;;;;5101196;27;19912;-52
2022/06/19 08:19:27;;;;;;;;;;;28.80;46.00;;;;;;5119665;27;19911;-53
2022/06/19 08:22:07;;;;;;;;;;;28.90;45.90;;;;;;5123693;27;19912;-53
2022/06/19 08:24:46;;;;;;;;;;;29.00;46.20;;;;;;5075131;27;19986;-55
2022/06/19 08:27:26;;;;;;;;;;;29.20;45.00;;;;;;5085428;27;20182;-54
2022/06/19 08:30:08;;;;;;;;;;;29.40;44.50;;;;;;5088447;27;19913;-56
2022/06/19 08:32:48;;;;;;;;;;;29.60;43.40;;;;;;5125534;27;19919;-53
2022/06/19 08:35:28;;;;;;;;;;;29.80;41.60;;;;;;5114479;27;19945;-53
2022/06/19 08:38:10;;;;;;;;;;;29.80;41.30;;;;;;5133461;27;19916;-56
2022/06/19 08:41:06;;;;;;;;;;;29.90;40.00;;;;;;5104850;27;20385;-53
2022/06/19 08:43:56;;;;;;;;;;;30.00;37.90;;;;;;5121709;27;20336;-54
2022/06/19 08:46:40;;;;;;;;;;;30.00;37.60;;;;;;5097350;27;19912;-54
2022/06/19 08:49:32;;;;;;;;;;;29.90;37.70;;;;;;5097800;27;19950;-52
2022/06/19 08:52:19;;;;;;;;;;;29.90;38.70;;;;;;5100102;27;19920;-53
2022/06/19 08:55:02;;;;;;;;;;;30.10;36.90;;;;;;5084834;27;19953;-55
2022/06/19 08:57:45;;;;;;;;;;;30.10;36.30;;;;;;5121715;27;19926;-53
2022/06/19 09:00:29;;;;;;;;;;;30.30;37.40;;;;;;5088463;27;19927;-53
2022/06/19 09:03:12;;;;;;;;;;;30.30;36.60;;;;;;5123897;27;19912;-53
2022/06/19 09:05:55;;;;;;;;;;;30.40;36.40;;;;;;5123338;27;19916;-56
2022/06/19 09:08:40;;;;;;;;;;;30.50;37.10;;;;;;5102145;27;19915;-54
2022/06/19 09:11:34;;;;;;;;;;;30.60;36.70;;;;;;5124417;27;19912;-53
2022/06/19 09:14:25;;;;;;;;;;;30.60;35.20;;;;;;5125005;27;19926;-54
2022/06/19 09:17:09;;;;;;;;;;;30.70;38.00;;;;;;5103572;27;19912;-55
2022/06/19 09:19:52;;;;;;;;;;;30.80;35.70;;;;;;5091527;27;19921;-54
2022/06/19 09:22:37;;;;;;;;;;;30.90;35.70;;;;;;5124377;27;19919;-55
2022/06/19 09:25:27;;;;;;;;;;;31.00;35.90;;;;;;5124164;27;19933;-55
2022/06/19 09:28:11;;;;;;;;;;;31.10;35.30;;;;;;5103235;27;19912;-53
2022/06/19 09:30:53;;;;;;;;;;;31.10;34.90;;;;;;5124543;27;20362;-54
2022/06/19 09:33:38;;;;;;;;;;;31.20;34.80;;;;;;5104111;27;20328;-53
2022/06/19 09:36:21;;;;;;;;;;;31.40;35.10;;;;;;5124346;27;19912;-54
2022/06/19 09:39:03;;;;;;;;;;;31.50;34.30;;;;;;5101894;27;20289;-53
2022/06/19 09:41:46;;;;;;;;;;;31.70;33.70;;;;;;5123975;27;19920;-53
2022/06/19 09:44:29;;;;;;;;;;;31.70;33.40;;;;;;5124630;27;19911;-53
2022/06/19 09:47:12;;;;;;;;;;;31.80;34.00;;;;;;5123445;27;19911;-53
2022/06/19 09:49:55;;;;;;;;;;;31.80;33.50;;;;;;5111248;27;19916;-56
2022/06/19 09:52:52;;;;;;;;;;;32.00;34.10;;;;;;5111861;27;20188;-55
2022/06/19 09:55:35;;;;;;;;;;;32.10;35.10;;;;;;5123281;27;19953;-53
2022/06/19 09:58:18;;;;;;;;;;;32.30;33.50;;;;;;5124166;27;19912;-54
2022/06/19 10:01:00;;;;;;;;;;;32.40;33.00;;;;;;5124071;27;19912;-53
2022/06/19 10:03:41;;;;;;;;;;;32.40;34.00;;;;;;5124197;27;19912;-54
2022/06/19 10:06:25;;;;;;;;;;;32.50;33.80;;;;;;5123736;27;20304;-54
2022/06/19 10:09:17;;;;;;;;;;;32.60;34.50;;;;;;5117904;27;19916;-53
2022/06/19 10:11:59;;;;;;;;;;;32.80;35.10;;;;;;5123462;27;19915;-52
2022/06/19 10:14:40;;;;;;;;;;;32.70;33.90;;;;;;5102990;27;19912;-53
2022/06/19 10:17:23;;;;;;;;;;;32.90;33.80;;;;;;5102961;27;19926;-54
2022/06/19 10:20:05;;;;;;;;;;;32.90;33.40;;;;;;5093118;27;19954;-53
2022/06/19 10:22:58;;;;;;;;;;;32.90;32.90;;;;;;5123258;27;19915;-55
2022/06/19 10:25:49;;;;;;;;;;;32.90;32.70;;;;;;5124233;27;19911;-53
2022/06/19 10:28:48;;;;;;;;;;;32.90;33.70;;;;;;5103502;27;20087;-56
2022/06/19 10:31:36;;;;;;;;;;;33.00;33.10;;;;;;5124527;27;19915;-53
2022/06/19 10:34:23;;;;;;;;;;;33.30;32.70;;;;;;5124813;27;19912;-53
2022/06/19 10:37:07;;;;;;;;;;;33.30;33.20;;;;;;5124271;27;19912;-54
2022/06/19 10:39:54;;;;;;;;;;;33.50;34.70;;;;;;5130969;27;19926;-52
2022/06/19 10:42:40;;;;;;;;;;;33.70;33.60;;;;;;5108007;27;19916;-55
2022/06/19 10:45:30;;;;;;;;;;;33.90;32.70;;;;;;5102171;27;19926;-55
2022/06/19 10:48:22;;;;;;;;;;;34.00;31.20;;;;;;5089866;27;20444;-55
2022/06/19 10:51:09;;;;;;;;;;;33.80;32.00;;;;;;5083696;27;19966;-55
2022/06/19 10:54:07;;;;;;;;;;;33.70;33.50;;;;;;5122225;27;19922;-53
2022/06/19 10:56:50;;;;;;;;;;;33.80;32.60;;;;;;5112060;27;20129;-54
2022/06/19 10:59:31;;;;;;;;;;;34.10;32.00;;;;;;5117797;27;20378;-54
2022/06/19 11:05:21;;;;;;;;;;;34.30;30.50;;;;;;5124510;27;19922;-54
2022/06/19 11:08:04;;;;;;;;;;;34.10;30.60;;;;;;5123282;27;20278;-53
2022/06/19 11:10:48;;;;;;;;;;;34.20;32.00;;;;;;5117202;27;19920;-54
2022/06/19 11:13:43;;;;;;;;;;;34.30;31.60;;;;;;5124223;27;19912;-54
2022/06/19 11:16:24;;;;;;;;;;;34.40;32.60;;;;;;5102830;27;19913;-53
2022/06/19 11:19:03;;;;;;;;;;;34.50;31.50;;;;;;5101656;27;19926;-55
2022/06/19 11:21:43;;;;;;;;;;;34.60;31.30;;;;;;5103523;27;19926;-54
2022/06/19 11:24:28;;;;;;;;;;;34.70;30.50;;;;;;5103745;27;19912;-55
2022/06/19 11:27:14;;;;;;;;;;;34.80;31.30;;;;;;5102843;27;19969;-54
2022/06/19 11:29:56;;;;;;;;;;;34.80;29.10;;;;;;5114551;27;19918;-54
2022/06/19 11:32:42;;;;;;;;;;;34.70;30.00;;;;;;5124714;27;19938;-54
2022/06/19 11:35:23;;;;;;;;;;;34.60;30.00;;;;;;5103907;27;19985;-54
2022/06/19 11:38:06;;;;;;;;;;;34.60;30.00;;;;;;5123815;27;19918;-53
2022/06/19 11:40:49;;;;;;;;;;;34.60;30.20;;;;;;5119248;27;19916;-55
2022/06/19 11:43:31;;;;;;;;;;;34.60;29.90;;;;;;5124577;27;20288;-52
2022/06/19 11:46:16;;;;;;;;;;;34.70;30.40;;;;;;5104011;27;19986;-54
2022/06/19 11:48:57;;;;;;;;;;;35.00;29.90;;;;;;5123254;27;19912;-54
2022/06/19 11:51:37;;;;;;;;;;;35.10;29.00;;;;;;5124605;27;20387;-54
2022/06/19 11:54:16;;;;;;;;;;;35.30;29.40;;;;;;5124290;27;19912;-54
2022/06/19 11:56:57;;;;;;;;;;;35.30;28.50;;;;;;5124041;27;19912;-54
2022/06/19 11:59:44;;;;;;;;;;;35.20;29.40;;;;;;5115442;27;20392;-54
2022/06/19 12:02:28;;;;;;;;;;;35.10;30.20;;;;;;5124270;27;20413;-53
2022/06/19 12:05:22;;;;;;;;;;;35.20;30.70;;;;;;5124256;27;19916;-54
2022/06/19 12:08:08;;;;;;;;;;;35.30;28.50;;;;;;5102988;27;20221;-55
2022/06/19 12:10:53;;;;;;;;;;;35.20;30.50;;;;;;5139579;27;19912;-54
2022/06/19 12:13:36;;;;;;;;;;;35.20;28.60;;;;;;5124764;27;19961;-54
2022/06/19 12:16:20;;;;;;;;;;;35.20;29.70;;;;;;5123728;27;20320;-53
2022/06/19 12:19:14;;;;;;;;;;;35.30;29.80;;;;;;5101878;27;20304;-53
2022/06/19 12:21:56;;;;;;;;;;;35.40;29.50;;;;;;5124166;27;19912;-53
2022/06/19 12:24:40;;;;;;;;;;;35.40;29.50;;;;;;5124257;27;19929;-56
2022/06/19 12:27:23;;;;;;;;;;;35.50;29.20;;;;;;5123488;27;19912;-54
2022/06/19 12:30:05;;;;;;;;;;;35.50;29.00;;;;;;5093407;27;19957;-54
2022/06/19 12:32:47;;;;;;;;;;;35.50;29.60;;;;;;5124858;27;20385;-53
2022/06/19 12:35:31;;;;;;;;;;;35.70;30.00;;;;;;5083753;28;19912;-56
2022/06/19 12:38:13;;;;;;;;;;;35.90;29.40;;;;;;5124623;27;20300;-53
2022/06/19 12:41:01;;;;;;;;;;;35.90;28.40;;;;;;5124105;27;20196;-56
2022/06/19 12:43:47;;;;;;;;;;;35.90;28.70;;;;;;5124681;27;19920;-53
2022/06/19 12:46:38;;;;;;;;;;;36.10;28.60;;;;;;5123980;27;19912;-53
2022/06/19 12:49:28;;;;;;;;;;;36.20;29.90;;;;;;5099718;27;19930;-54
2022/06/19 12:52:13;;;;;;;;;;;36.30;28.30;;;;;;5105447;27;19954;-54
2022/06/19 12:55:07;;;;;;;;;;;36.20;28.20;;;;;;5123866;27;19915;-55
2022/06/19 12:57:56;;;;;;;;;;;36.10;27.50;;;;;;5102992;27;19916;-53
2022/06/19 13:00:39;;;;;;;;;;;36.20;26.60;;;;;;5087661;27;19912;-54
2022/06/19 13:03:30;;;;;;;;;;;36.30;24.50;;;;;;5124634;27;19912;-53
2022/06/19 13:06:26;;;;;;;;;;;36.20;24.20;;;;;;5123859;27;20084;-54
2022/06/19 13:09:14;;;;;;;;;;;36.20;24.70;;;;;;5100618;27;19950;-54
2022/06/19 13:11:57;;;;;;;;;;;36.20;25.90;;;;;;5124193;27;19922;-53
2022/06/19 13:15:03;;;;;;;;;;;36.30;26.20;;;;;;5124397;27;19912;-54
2022/06/19 13:17:44;;;;;;;;;;;36.60;26.30;;;;;;5123937;27;19927;-53
2022/06/19 13:20:31;;;;;;;;;;;36.60;24.60;;;;;;5109342;27;19916;-56
2022/06/19 13:23:18;;;;;;;;;;;36.60;24.80;;;;;;5145511;27;19911;-53
2022/06/19 13:26:07;;;;;;;;;;;36.70;25.20;;;;;;5123244;27;19953;-53
2022/06/19 13:28:52;;;;;;;;;;;36.70;24.90;;;;;;5144493;27;19912;-55
2022/06/19 13:31:33;;;;;;;;;;;36.60;24.50;;;;;;5103493;27;19912;-53
2022/06/19 13:34:20;;;;;;;;;;;36.60;24.00;;;;;;5124572;27;19912;-54
2022/06/19 13:37:05;;;;;;;;;;;36.50;22.80;;;;;;5103995;27;20199;-55
2022/06/19 13:39:52;;;;;;;;;;;36.60;23.30;;;;;;5094836;27;19913;-53
2022/06/19 13:42:44;;;;;;;;;;;36.70;22.50;;;;;;5104350;27;19965;-55
2022/06/19 13:45:33;;;;;;;;;;;36.80;22.90;;;;;;5124158;27;19911;-54
2022/06/19 13:48:15;;;;;;;;;;;36.90;22.40;;;;;;5104221;27;19957;-55
2022/06/19 13:51:00;;;;;;;;;;;37.00;24.40;;;;;;5123600;27;19912;-55
2022/06/19 13:53:43;;;;;;;;;;;37.10;22.40;;;;;;5123625;27;19916;-54
2022/06/19 13:56:27;;;;;;;;;;;37.10;23.60;;;;;;5103152;27;19949;-53
2022/06/19 13:59:19;;;;;;;;;;;37.10;22.60;;;;;;5100815;27;19958;-54
2022/06/19 14:02:03;;;;;;;;;;;37.20;22.30;;;;;;5123832;27;19915;-54
2022/06/19 14:05:07;;;;;;;;;;;37.30;22.70;;;;;;5124476;27;20364;-54
2022/06/19 14:07:59;;;;;;;;;;;37.50;22.50;;;;;;5102894;27;20323;-54
2022/06/19 14:10:46;;;;;;;;;;;37.60;22.70;;;;;;5119425;27;19912;-53
2022/06/19 14:13:36;;;;;;;;;;;37.60;22.30;;;;;;5124682;27;19912;-54
2022/06/19 14:16:25;;;;;;;;;;;37.60;21.70;;;;;;5124154;27;19912;-54
2022/06/19 14:19:12;;;;;;;;;;;37.60;23.00;;;;;;5101526;27;19946;-52
2022/06/19 14:21:55;;;;;;;;;;;37.80;22.90;;;;;;5124239;27;19918;-53
2022/06/19 14:24:39;;;;;;;;;;;37.70;23.20;;;;;;5124004;27;19915;-53
2022/06/19 14:27:29;;;;;;;;;;;37.80;24.10;;;;;;5123365;27;19912;-56
2022/06/19 14:30:12;;;;;;;;;;;37.80;24.10;;;;;;5112211;27;19916;-53
2022/06/19 14:32:55;;;;;;;;;;;37.80;23.50;;;;;;5124378;27;19912;-56
2022/06/19 14:35:37;;;;;;;;;;;37.70;22.70;;;;;;5124367;27;19912;-54
2022/06/19 14:38:23;;;;;;;;;;;37.40;23.80;;;;;;5124257;27;19912;-55
2022/06/19 14:41:08;;;;;;;;;;;37.50;24.00;;;;;;5123792;27;20426;-54
2022/06/19 14:43:57;;;;;;;;;;;37.80;24.30;;;;;;5124932;27;19953;-53
2022/06/19 14:46:51;;;;;;;;;;;38.00;23.00;;;;;;5124361;27;20221;-54
2022/06/19 14:49:51;;;;;;;;;;;38.20;23.70;;;;;;5124847;27;19918;-55
2022/06/19 14:52:44;;;;;;;;;;;38.40;24.20;;;;;;5103669;27;19942;-56
2022/06/19 14:55:35;;;;;;;;;;;38.50;23.90;;;;;;5123264;27;19920;-54
2022/06/19 14:58:17;;;;;;;;;;;38.60;23.80;;;;;;5123949;27;19911;-54
2022/06/19 15:01:00;;;;;;;;;;;38.70;24.40;;;;;;5103733;27;19953;-54
2022/06/19 15:03:42;;;;;;;;;;;38.60;23.50;;;;;;5124506;27;19922;-54
2022/06/19 15:06:23;;;;;;;;;;;38.60;23.60;;;;;;5123763;27;19922;-56
2022/06/19 15:09:05;;;;;;;;;;;38.60;23.50;;;;;;5142460;27;19918;-55
2022/06/19 15:11:46;;;;;;;;;;;38.60;24.90;;;;;;5124505;27;19912;-53
2022/06/19 15:14:30;;;;;;;;;;;38.70;23.40;;;;;;5124157;27;19916;-55
2022/06/19 15:17:20;;;;;;;;;;;38.90;23.20;;;;;;5123795;27;19912;-54
2022/06/19 15:20:05;;;;;;;;;;;38.70;23.10;;;;;;5124595;27;20513;-54
2022/06/19 15:23:05;;;;;;;;;;;38.70;23.30;;;;;;5125055;27;19919;-54
2022/06/19 15:25:46;;;;;;;;;;;39.30;24.60;;;;;;5103143;27;19946;-53
2022/06/19 15:28:59;;;;;;;;;;;40.50;22.40;;;;;;5124510;27;19912;-54
2022/06/19 15:32:03;;;;;;;;;;;41.50;21.70;;;;;;5124385;27;19912;-54
2022/06/19 15:34:51;;;;;;;;;;;42.40;20.50;;;;;;5124625;27;20381;-57
2022/06/19 15:37:41;;;;;;;;;;;42.90;21.10;;;;;;5103245;27;20323;-52
2022/06/19 15:40:25;;;;;;;;;;;43.20;20.30;;;;;;5110791;27;19926;-53
2022/06/19 15:43:40;;;;;;;;;;;43.10;20.50;;;;;;5124666;27;19912;-53
2022/06/19 15:46:20;;;;;;;;;;;43.10;19.60;;;;;;5123939;27;19957;-53
2022/06/19 15:48:59;;;;;;;;;;;43.00;20.20;;;;;;5101965;27;19982;-54
2022/06/19 15:51:40;;;;;;;;;;;43.40;19.20;;;;;;5103699;27;19919;-55
2022/06/19 15:54:22;;;;;;;;;;;43.50;18.90;;;;;;5124300;27;19912;-53
2022/06/19 15:57:02;;;;;;;;;;;43.70;19.10;;;;;;5104278;27;19912;-53
2022/06/19 15:59:43;;;;;;;;;;;43.60;19.30;;;;;;5116340;27;19920;-55